This is the latest recevied weather packets stored in our database for station/object DG6HD-13. If no packets are shown the sender has not sent any weather packets the latest 10 day(s).
| Time | Temp. | Humidity | Pressure | Rain* | Wind** | Luminosity | Snow |
|---|---|---|---|---|---|---|---|
| 1778298503 | 7.78° C | 45% | 1022.5 hPa | - | - | - | - |
| 1778297603 | 7.22° C | 48% | 1022.5 hPa | - | - | - | - |
| 1778296702 | 8.33° C | 45% | 1022.6 hPa | - | - | - | - |
| 1778295801 | 7.22° C | 48% | 1022.6 hPa | - | - | - | - |
| 1778294900 | 7.78° C | 46% | 1022.7 hPa | - | - | - | - |
| 1778293999 | 6.67° C | 49% | 1022.7 hPa | - | - | - | - |
| 1778293099 | 7.78° C | 48% | 1022.7 hPa | - | - | - | - |
| 1778292198 | 8.33° C | 46% | 1022.7 hPa | - | - | - | - |
| 1778291297 | 7.22° C | 48% | 1022.8 hPa | - | - | - | - |
| 1778290396 | 10° C | 42% | 1022.8 hPa | - | - | - | - |
| 1778289495 | 7.22° C | 49% | 1022.7 hPa | - | - | - | - |
| 1778288594 | 8.33° C | 45% | 1022.7 hPa | - | - | - | - |
| 1778287693 | 7.22° C | 49% | 1022.8 hPa | - | - | - | - |
| 1778286793 | 7.22° C | 48% | 1022.9 hPa | - | - | - | - |
| 1778285892 | 7.22° C | 49% | 1022.9 hPa | - | - | - | - |
| 1778284991 | 7.22° C | 49% | 1023 hPa | - | - | - | - |
| 1778284090 | 7.78° C | 47% | 1023.1 hPa | - | - | - | - |
| 1778283189 | 7.22° C | 49% | 1023.1 hPa | - | - | - | - |
| 1778282288 | 7.78° C | 49% | 1023.1 hPa | - | - | - | - |
| 1778281387 | 7.78° C | 49% | 1023.3 hPa | - | - | - | - |
| 1778280486 | 8.89° C | 47% | 1023.1 hPa | - | - | - | - |
| 1778279586 | 7.78° C | 48% | 1023.2 hPa | - | - | - | - |
| 1778278685 | 8.33° C | 49% | 1023.3 hPa | - | - | - | - |
| 1778277784 | 8.33° C | 48% | 1023.4 hPa | - | - | - | - |
| 1778276883 | 8.33° C | 48% | 1023.3 hPa | - | - | - | - |
* Rain since midnight (hover to see other rain measurements)
** Current wind speed in m/s (hover to see current wind gust speed)